ADDS METAR Data INFO
IDs: Format: Raw Decoded Include TAF

Data at: 1509 UTC 11 Dec 2017

PARS 111456Z AUTO 02011KT 10SM OVC060 M01/M04 A2899 RMK AO2 SLP821 T10111039 56002 FZRANO $
PARS 111356Z AUTO 02008KT 10SM FEW050 OVC075 M01/M04 A2899 RMK AO2 SLP821 T10111044 FZRANO $
PARS 111256Z AUTO 03011G18KT 10SM FEW055 OVC070 00/M03 A2898 RMK AO2 SLP816 T00001033 FZRANO $
PARS 111156Z AUTO 35007KT 310V020 10SM SCT027 BKN044 OVC065 M01/M04 A2899 RMK AO2 SLP823 T10111039 11011 21039 56033 FZRANO $
PARS 111056Z AUTO 01009G15KT 10SM FEW065 BKN100 BKN120 M01/M04 A2901 RMK AO2 SLP828 T10111044 FZRANO $
PARS 110956Z AUTO VRB05KT 10SM OVC110 M02/M04 A2906 RMK AO2 SLP845 T10171044 FZRANO $
PARS 110856Z AUTO 36006KT 10SM OVC100 M03/M04 A2909 RMK AO2 SLP856 T10281039 56041 FZRANO $
PARS 110756Z AUTO 35006KT 10SM BKN060 BKN080 M02/M04 A2912 RMK AO2 SLP866 T10221039 410221156 FZRANO $
PARS 110656Z AUTO 02006KT 10SM BKN080 M03/M04 A2918 RMK AO2 SLP884 T10331044 FZRANO $
PARS 110556Z AUTO 03003KT 10SM CLR M03/M05 A2921 RMK AO2 SLP897 60000 T10331050 11028 21061 58023 FZRANO $
PARS 110456Z AUTO 02006KT 10SM BKN090 M03/M04 A2924 RMK AO2 SNE12 SLP905 P0000 T10281039 FZRANO $
PARS 110431Z AUTO 02005KT 10SM SCT016 SCT055 BKN085 M03/M04 A2925 RMK AO2 SNE12 P0000 FZRANO $
PARS 110356Z AUTO 04006KT 6SM -SN BR BKN014 OVC026 M03/M04 A2928 RMK AO2 SLP919 P0000 T10331044 FZRANO $
PARS 110354Z AUTO 04005KT 5SM -SN BR BKN014 OVC026 M03/M04 A2928 RMK AO2 P0000 FZRANO $
PARS 110256Z AUTO 05008KT 5SM -SN BR OVC025 M04/M05 A2930 RMK AO2 SNB34 SLP925 P0000 60000 T10391050 58024 FZRANO $
PARS 110237Z AUTO 05005KT 10SM -SN FEW014 OVC022 M04/M06 A2931 RMK AO2 SNB34 P0000 FZRANO $
PARS 110156Z AUTO 06003KT 10SM OVC014 M04/M06 A2932 RMK AO2 SLP935 T10441061 FZRANO $
PARS 110145Z AUTO 04006KT 10SM OVC014 M05/M06 A2933 RMK AO2 FZRANO $
PARS 110056Z AUTO 05006KT 10SM FEW018 OVC100 M06/M07 A2935 RMK AO2 SLP942 T10561067 FZRANO $
PARS 110033Z AUTO 06005KT 10SM FEW018 BKN110 M06/M07 A2935 RMK AO2 FZRANO $
PARS 110026Z AUTO 06006KT 10SM BKN018 BKN110 M06/M07 A2936 RMK AO2 FZRANO $
PARS 102356Z AUTO 06007KT 10SM FEW018 M06/M07 A2937 RMK AO2 SLP949 T10611072 11056 21067 58025 FZRANO $
PARS 102315Z AUTO 05006KT 10SM SCT010 M06/M07 A2938 RMK AO2 FZRANO $
PARS 102304Z AUTO 05006KT 10SM BKN010 M06/M07 A2939 RMK AO2 FZRANO $
PARS 102256Z AUTO 04007KT 10SM OVC008 M06/M07 A2940 RMK AO2 SLP959 T10611072 FZRANO $
PARS 102156Z AUTO 06011G16KT 10SM OVC008 M06/M07 A2943 RMK AO2 SLP970 T10561067 FZRANO $
PARS 102056Z AUTO 05009KT 10SM OVC008 M06/M07 A2944 RMK AO2 SLP975 T10561067 58008 FZRANO $
PARS 102011Z AUTO 04010KT 10SM OVC008 M06/M07 A2945 RMK AO2 FZRANO $
PARS 101956Z AUTO 05009KT 10SM OVC010 M06/M07 A2946 RMK AO2 CIG 008V012 SLP981 T10561067 FZRANO $
PARS 101856Z AUTO 05008KT 10SM OVC012 M06/M07 A2947 RMK AO2 SLP983 T10611072 FZRANO $
PARS 101833Z AUTO 06008KT 10SM BKN012 M06/M07 A2947 RMK AO2 FZRANO $
PARS 101806Z AUTO 05008KT 10SM FEW014 SCT022 M07/M07 A2947 RMK AO2 FZRANO $
PARS 101756Z AUTO 04008KT 10SM FEW014 BKN020 M07/M07 A2947 RMK AO2 SLP983 T10671072 11061 21078 57006 FZRANO $
PARS 101734Z AUTO 05008KT 10SM SCT014 OVC020 M06/M07 A2947 RMK AO2 FZRANO $
PARS 101725Z AUTO 04007KT 10SM BKN014 OVC020 M06/M07 A2947 RMK AO2 FZRANO $
PARS 101656Z AUTO 02007KT 10SM BKN016 OVC021 M06/M07 A2947 RMK AO2 SLP985 T10611072 FZRANO $
PARS 101556Z AUTO 02006KT 10SM OVC016 M06/M07 A2948 RMK AO2 SLP987 T10611072 FZRANO $
PARS 101533Z AUTO 02006KT 10SM BKN018 M07/M08 A2948 RMK AO2 FZRANO $
PARS 101456Z AUTO 03006KT 10SM FEW018 M07/M07 A2949 RMK AO2 SLP989 T10671072 58012 FZRANO $
PARS 101441Z AUTO 03007KT 10SM FEW018 M07/M07 A2949 RMK AO2 FZRANO $
PARS 101356Z AUTO 03007KT 10SM OVC020 M07/M07 A2950 RMK AO2 SLP994 T10671072 FZRANO $
PARS 101333Z AUTO 02006KT 10SM BKN016 OVC023 M06/M07 A2951 RMK AO2 FZRANO $
PARS 101256Z AUTO 02005KT 10SM OVC012 M07/M08 A2951 RMK AO2 SLP998 T10671078 FZRANO $
PARS 101156Z AUTO 05004KT 9SM OVC012 M08/M08 A2952 RMK AO2 SLP001 60000 T10781083 11078 21161 58010 FZRANO $
PARS 101056Z AUTO 00000KT 9SM OVC012 M12/M13 A2953 RMK AO2 SNB27E40 SLP004 P0000 T11221133 FZRANO $
PARS 100956Z AUTO 00000KT 10SM OVC012 M15/M17 A2954 RMK AO2 SNB30E42 SLP008 P0000 T11501167 FZRANO $
PARS 100856Z AUTO 00000KT 10SM BKN010 M13/M14 A2955 RMK AO2 SLP011 60000 T11331144 56011 FZRANO $
PARS 100815Z AUTO 00000KT 8SM SCT012 M13/M14 A2956 RMK AO2 FZRANO $
PARS 100756Z AUTO 00000KT 9SM BKN010 M16/M18 A2956 RMK AO2 SNE53 SLP015 P0000 T11611178 410671161 FZRANO $
PARS 100741Z AUTO 25003KT 9SM -SN BKN010 M16/M17 A2956 RMK AO2 P0000 FZRANO $
PARS 100722Z AUTO 00000KT 9SM -SN SCT012 M15/M16 A2957 RMK AO2 P0000 FZRANO $
PARS 100656Z AUTO 00000KT 8SM -SN OVC012 M16/M17 A2957 RMK AO2 SNB11E22B38 SLP017 P0000 T11561172 FZRANO $
PARS 100624Z AUTO 00000KT 6SM BR FEW003 BKN012 M16/M17 A2958 RMK AO2 SNB11E22 P0000 FZRANO $
PARS 100556Z AUTO VRB03KT 10SM FEW002 M16/M17 A2958 RMK AO2 SNB39E49 SLP022 P0000 60000 T11561172 11111 21156 56012 FZRANO $
PARS 100456Z AUTO 24003KT 10SM CLR M15/M17 A2959 RMK AO2 SLP026 T11501167 FZRANO $
PARS 100356Z AUTO 00000KT 10SM FEW002 M14/M16 A2960 RMK AO2 SLP029 T11441161 FZRANO $
PARS 100334Z AUTO 00000KT 10SM SCT002 M14/M16 A2961 RMK AO2 FZRANO $